TimeCDT,TemperatureF,Dew PointF,Humidity,Sea Level PressureIn,VisibilityMPH,Wind Direction,Wind SpeedMPH,Gust SpeedMPH,PrecipitationIn,Events,Conditions,WindDirDegrees,DateUTC
12:58 AM,46.2,44.6,94,30.27,10.0,Calm,Calm,-,N/A,,Clear,0,2013-04-21 05:58:00
1:55 AM,46.4,44.6,93,30.26,10.0,Calm,Calm,-,N/A,,Clear,0,2013-04-21 06:55:00
2:58 AM,44.2,43.2,96,30.27,10.0,Calm,Calm,-,N/A,,Clear,10,2013-04-21 07:58:00
3:58 AM,44.8,41.7,89,30.27,10.0,Calm,Calm,-,N/A,,Clear,0,2013-04-21 08:58:00
4:58 AM,43.9,41.4,91,30.27,10.0,NNE,1.2,-,N/A,,Clear,20,2013-04-21 09:58:00
5:58 AM,43.9,38.8,82,30.28,10.0,NE,3.5,-,N/A,,Clear,50,2013-04-21 10:58:00
6:58 AM,43.3,38.3,82,30.30,10.0,Calm,Calm,-,N/A,,Clear,10,2013-04-21 11:58:00
7:58 AM,48.2,39.7,73,30.31,10.0,NE,2.3,-,N/A,,Clear,50,2013-04-21 12:58:00
8:58 AM,54.9,38.5,54,30.32,10.0,ENE,8.1,-,N/A,,Clear,70,2013-04-21 13:58:00
9:58 AM,61.0,37.8,42,30.33,10.0,East,9.2,-,N/A,,Clear,80,2013-04-21 14:58:00
10:58 AM,64.6,34.0,32,30.32,10.0,East,11.5,-,N/A,,Clear,80,2013-04-21 15:58:00
1:58 PM,68.9,32.5,26,30.24,10.0,Variable,1.2,-,N/A,,Clear,0,2013-04-21 18:58:00
2:58 PM,70.3,32.0,24,30.22,10.0,Variable,4.6,-,N/A,,Clear,0,2013-04-21 19:58:00
3:58 PM,71.2,33.6,25,30.20,10.0,ESE,4.6,-,N/A,,Clear,110,2013-04-21 20:58:00
4:58 PM,71.8,34.2,25,30.19,10.0,East,5.8,-,N/A,,Clear,90,2013-04-21 21:58:00
5:58 PM,71.1,36.3,28,30.19,10.0,East,4.6,-,N/A,,Clear,100,2013-04-21 22:58:00
6:58 PM,67.8,40.8,37,30.19,10.0,Calm,Calm,-,N/A,,Clear,360,2013-04-21 23:58:00
7:58 PM,59.5,45.9,61,30.20,10.0,Calm,Calm,-,N/A,,Clear,0,2013-04-22 00:58:00
8:58 PM,55.4,47.1,74,30.21,10.0,Calm,Calm,-,N/A,,Clear,0,2013-04-22 01:58:00
9:58 PM,53.2,48.7,85,30.20,10.0,Calm,Calm,-,N/A,,Clear,0,2013-04-22 02:58:00
10:58 PM,50.2,46.4,87,30.20,10.0,Calm,Calm,-,N/A,,Clear,0,2013-04-22 03:58:00
11:58 PM,50.9,45.7,82,30.19,10.0,Calm,Calm,-,N/A,,Clear,0,2013-04-22 04:58:00